Time;durP1;ratioP1;P1;durP2;ratioP2;P2;SDS_P1;SDS_P2;PMS_P1;PMS_P2;Temp;Humidity;BMP_temperature;BMP_pressure;BME280_temperature;BME280_humidity;BME280_pressure;Samples;Min_cycle;Max_cycle;Signal;HPM_P1;HPM_P2
2022/09/19 00:00:36;;;;;;;7.65;2.50;;;;;;;12.29;83.96;100059.88;5103696;28;20032;-64
2022/09/19 00:03:02;;;;;;;2.70;2.10;;;;;;;12.24;83.49;100061.34;5103308;28;20812;-65
2022/09/19 00:05:27;;;;;;;2.45;2.05;;;;;;;12.27;83.74;100063.72;5102055;28;20478;-65
2022/09/19 00:07:53;;;;;;;3.55;2.42;;;;;;;12.24;83.97;100058.66;5103931;28;20043;-65
2022/09/19 00:10:18;;;;;;;5.95;2.42;;;;;;;12.25;83.98;100057.66;5103200;28;20501;-64
2022/09/19 00:12:43;;;;;;;4.47;2.28;;;;;;;12.24;84.75;100054.13;5103501;28;20039;-65
2022/09/19 00:15:09;;;;;;;4.68;2.10;;;;;;;12.24;84.32;100056.81;5103918;28;20023;-66
2022/09/19 00:17:35;;;;;;;4.07;1.70;;;;;;;12.24;83.75;100059.50;5102724;28;20049;-65
2022/09/19 00:20:00;;;;;;;3.90;2.15;;;;;;;12.16;84.08;100042.44;5101871;28;20032;-68
2022/09/19 00:22:26;;;;;;;2.00;1.80;;;;;;;12.26;84.52;100052.16;5101909;28;20034;-68
2022/09/19 00:24:51;;;;;;;3.80;1.48;;;;;;;12.25;84.54;100054.97;5102912;28;20035;-66
2022/09/19 00:27:22;;;;;;;2.60;1.23;;;;;;;12.19;84.45;100042.97;5103057;28;20047;-64
2022/09/19 00:29:48;;;;;;;1.40;1.30;;;;;;;12.27;84.66;100053.81;5104214;28;20028;-64
2022/09/19 00:32:15;;;;;;;2.78;1.23;;;;;;;12.27;83.66;100051.13;5103023;28;20438;-64
2022/09/19 00:34:47;;;;;;;1.92;1.30;;;;;;;12.24;83.93;100034.44;5102829;28;20448;-64
2022/09/19 00:37:14;;;;;;;2.35;1.05;;;;;;;12.33;84.10;100053.22;5102261;28;20022;-65
2022/09/19 00:39:40;;;;;;;1.67;1.17;;;;;;;12.36;83.78;100047.53;5102830;28;20722;-64
2022/09/19 00:42:14;;;;;;;1.90;1.05;;;;;;;12.40;84.05;100050.75;5101387;28;20422;-65
2022/09/19 00:44:40;;;;;;;1.00;0.70;;;;;;;12.41;83.70;100049.78;5102510;28;20494;-64
2022/09/19 00:47:10;;;;;;;1.10;0.77;;;;;;;12.41;83.77;100053.28;5102835;28;20027;-65
2022/09/19 00:49:40;;;;;;;0.70;0.63;;;;;;;12.42;83.35;100055.00;5103373;28;20023;-66
2022/09/19 00:52:13;;;;;;;1.30;0.90;;;;;;;12.31;83.32;100039.06;5102602;28;20542;-66
2022/09/19 00:54:42;;;;;;;2.10;0.95;;;;;;;12.45;82.71;100051.97;5104786;28;20027;-67
2022/09/19 00:57:12;;;;;;;2.88;0.80;;;;;;;12.46;83.00;100058.22;5107215;27;20042;-66
2022/09/19 00:59:40;;;;;;;1.25;0.75;;;;;;;12.46;82.93;100063.59;5107706;28;20031;-66
2022/09/19 01:02:08;;;;;;;1.13;0.75;;;;;;;12.49;82.55;100066.84;5105112;28;20027;-68
2022/09/19 01:04:40;;;;;;;2.30;1.15;;;;;;;12.52;82.40;100063.00;5107313;28;20671;-67
2022/09/19 01:07:14;;;;;;;2.92;2.00;;;;;;;12.52;82.92;100057.59;5105332;28;20023;-67
2022/09/19 01:09:39;;;;;;;3.35;2.53;;;;;;;12.54;83.04;100063.69;5107083;28;20031;-66
2022/09/19 01:12:31;;;;;;;4.03;2.97;;;;;;;12.56;82.84;100064.38;5106675;28;20046;-67
2022/09/19 01:15:21;;;;;;;4.70;2.80;;;;;;;12.60;83.41;100065.75;5106490;28;20143;-67
2022/09/19 01:17:49;;;;;;;4.35;2.70;;;;;;;12.59;84.12;100064.91;5106640;28;20056;-67
2022/09/19 01:20:52;;;;;;;2.47;2.05;;;;;;;12.61;84.39;100067.47;5106032;28;20039;-67
2022/09/19 01:23:57;;;;;;;2.85;2.08;;;;;;;12.61;85.65;100070.16;5106517;27;20023;-65
2022/09/19 01:26:37;;;;;;;3.13;2.27;;;;;;;12.62;87.38;100077.22;5049380;28;20932;-67
2022/09/19 01:29:09;;;;;;;3.65;2.47;;;;;;;12.66;87.28;100081.28;5099936;28;20073;-68
2022/09/19 01:31:45;;;;;;;3.70;2.60;;;;;;;12.55;87.13;100068.91;5104871;28;20498;-68
2022/09/19 01:34:17;;;;;;;4.60;2.25;;;;;;;12.56;86.86;100080.50;5105708;28;20516;-69
2022/09/19 01:36:48;;;;;;;3.17;1.95;;;;;;;12.58;87.66;100086.59;5104823;28;20043;-70
2022/09/19 01:39:23;;;;;;;1.60;0.98;;;;;;;12.56;88.23;100075.13;5106525;28;20043;-70
2022/09/19 01:41:50;;;;;;;2.55;1.10;;;;;;;12.52;88.27;100084.50;5106446;28;20069;-70
2022/09/19 01:44:20;;;;;;;0.95;0.75;;;;;;;12.55;88.87;100081.50;5106429;28;20811;-70
2022/09/19 01:46:57;;;;;;;1.05;0.82;;;;;;;12.51;90.28;100072.06;5107003;28;20019;-70
2022/09/19 01:49:38;;;;;;;3.65;0.85;;;;;;;12.51;89.44;100067.50;5106820;27;20074;-71
2022/09/19 01:52:15;;;;;;;2.20;0.93;;;;;;;12.48;90.17;100061.59;5106965;28;20372;-70
2022/09/19 01:54:57;;;;;;;1.38;0.80;;;;;;;12.49;91.05;100057.91;5104695;28;20027;-70
2022/09/19 01:57:48;;;;;;;1.52;0.90;;;;;;;12.51;90.54;100069.38;5106990;28;20038;-70
2022/09/19 02:00:18;;;;;;;1.48;0.77;;;;;;;12.43;90.72;100047.75;5087976;28;20039;-70
2022/09/19 02:02:56;;;;;;;1.30;0.77;;;;;;;12.55;90.94;100070.75;5105139;28;20023;-70
2022/09/19 02:05:35;;;;;;;2.00;1.23;;;;;;;12.56;91.14;100058.97;5104107;28;20422;-70
2022/09/19 02:08:28;;;;;;;1.67;1.40;;;;;;;12.57;90.71;100049.91;5105137;28;20036;-71
2022/09/19 02:11:11;;;;;;;1.45;1.02;;;;;;;12.59;90.60;100059.53;5101299;28;20051;-67
2022/09/19 02:13:44;;;;;;;2.15;0.93;;;;;;;12.59;90.21;100053.31;5100294;28;20023;-66
2022/09/19 02:16:17;;;;;;;1.25;0.95;;;;;;;12.49;89.72;100028.31;5107685;27;20065;-68
2022/09/19 02:18:58;;;;;;;1.70;0.90;;;;;;;12.58;90.41;100035.47;5105388;28;20486;-68
2022/09/19 02:21:38;;;;;;;1.48;0.80;;;;;;;12.58;89.97;100022.03;5105052;28;20482;-68
2022/09/19 02:24:13;;;;;;;1.42;0.68;;;;;;;12.56;89.58;100005.19;5105890;28;20088;-67
2022/09/19 02:26:41;;;;;;;1.58;0.82;;;;;;;12.41;89.75;99961.84;5104191;27;20055;-68
2022/09/19 02:29:12;;;;;;;0.73;0.57;;;;;;;12.56;90.22;99976.44;5105241;28;20044;-68
2022/09/19 02:31:38;;;;;;;2.38;0.60;;;;;;;12.46;90.31;99947.94;5105839;28;20027;-68
2022/09/19 02:34:06;;;;;;;0.50;0.50;;;;;;;12.55;89.95;99955.06;5105527;28;20524;-68
2022/09/19 02:36:50;;;;;;;1.75;0.80;;;;;;;12.58;90.26;99958.28;5102578;28;20973;-68
2022/09/19 02:39:38;;;;;;;1.02;0.68;;;;;;;12.58;90.07;99944.84;5103294;28;20368;-68
2022/09/19 02:42:17;;;;;;;0.98;0.80;;;;;;;12.59;89.29;99943.84;5104683;28;20397;-67
2022/09/19 02:44:57;;;;;;;1.98;0.70;;;;;;;12.61;89.19;99944.53;5104397;28;20516;-67
2022/09/19 02:47:28;;;;;;;1.77;1.00;;;;;;;12.61;89.17;99949.09;5101535;28;20364;-68
2022/09/19 02:50:07;;;;;;;1.17;0.80;;;;;;;12.54;90.04;99948.03;5103311;28;20036;-67
2022/09/19 02:52:34;;;;;;;2.55;1.20;;;;;;;12.57;88.14;99961.13;5103647;28;20028;-68
2022/09/19 02:55:12;;;;;;;1.27;0.60;;;;;;;12.57;88.19;99969.19;5104385;27;20061;-67
2022/09/19 02:57:43;;;;;;;1.00;0.60;;;;;;;12.53;88.43;99962.44;5104224;27;20019;-67
2022/09/19 03:00:11;;;;;;;2.80;0.55;;;;;;;12.46;89.52;99974.84;5103527;28;20031;-71
2022/09/19 03:02:45;;;;;;;0.70;0.70;;;;;;;12.51;90.39;99981.44;5105507;28;20019;-71
2022/09/19 03:05:15;;;;;;;1.05;0.60;;;;;;;12.52;90.41;99979.59;5105828;28;20103;-70
2022/09/19 03:07:49;;;;;;;1.05;0.50;;;;;;;12.44;90.23;99958.00;5106141;28;20158;-71
2022/09/19 03:10:22;;;;;;;0.60;0.50;;;;;;;12.48;90.69;99949.47;5103975;28;20058;-71
2022/09/19 03:13:01;;;;;;;0.60;0.50;;;;;;;12.51;89.96;99945.63;5106596;28;20047;-72
2022/09/19 03:15:41;;;;;;;0.82;0.68;;;;;;;12.48;89.33;99932.50;5105514;28;20266;-71
2022/09/19 03:18:14;;;;;;;1.00;0.70;;;;;;;12.49;88.70;99934.19;5105416;28;20039;-71
2022/09/19 03:20:46;;;;;;;0.98;0.70;;;;;;;12.47;89.30;99931.66;5105958;28;20050;-71
2022/09/19 03:23:17;;;;;;;1.10;0.80;;;;;;;12.48;88.60;99937.88;5107455;27;20483;-71
2022/09/19 03:25:43;;;;;;;0.98;0.70;;;;;;;12.45;88.42;99944.38;5105757;28;21392;-70
2022/09/19 03:28:08;;;;;;;1.50;0.70;;;;;;;12.48;89.10;99951.31;5106095;28;20016;-70
2022/09/19 03:30:34;;;;;;;0.80;0.60;;;;;;;12.44;88.39;99948.09;5105920;28;20057;-71
2022/09/19 03:32:59;;;;;;;0.60;0.57;;;;;;;12.45;88.87;99952.47;5106825;28;20024;-70
2022/09/19 03:35:25;;;;;;;1.77;0.52;;;;;;;12.42;88.48;99944.72;5106095;28;20042;-70
2022/09/19 03:37:51;;;;;;;1.75;0.70;;;;;;;12.34;87.96;99936.56;5108348;28;20114;-70
2022/09/19 03:40:17;;;;;;;0.77;0.60;;;;;;;12.44;88.79;99966.06;5106685;28;20035;-70
2022/09/19 03:42:45;;;;;;;1.23;0.73;;;;;;;12.42;89.09;99963.56;5107040;28;20023;-71
2022/09/19 03:45:11;;;;;;;1.00;0.63;;;;;;;12.39;90.20;99960.31;5106844;28;20070;-70
2022/09/19 03:47:37;;;;;;;1.40;0.80;;;;;;;12.35;90.63;99961.63;5107190;28;20051;-70
2022/09/19 03:50:03;;;;;;;0.77;0.65;;;;;;;12.40;90.41;99968.22;5106703;28;20879;-70
2022/09/19 03:52:29;;;;;;;0.60;0.60;;;;;;;12.44;89.37;99982.19;5104365;28;20032;-71
2022/09/19 03:54:56;;;;;;;0.85;0.55;;;;;;;12.43;89.16;99976.00;5105392;28;20471;-70
2022/09/19 03:57:22;;;;;;;1.50;0.60;;;;;;;12.45;89.30;99973.97;5105122;28;20034;-70
2022/09/19 03:59:47;;;;;;;0.50;0.40;;;;;;;12.44;88.11;99966.91;5105162;28;20106;-70
2022/09/19 04:02:13;;;;;;;1.75;0.73;;;;;;;12.44;87.81;99969.59;5104749;28;20034;-69
2022/09/19 04:04:38;;;;;;;2.17;0.63;;;;;;;12.40;87.11;99964.69;5103645;28;20050;-70
2022/09/19 04:07:05;;;;;;;1.45;0.60;;;;;;;12.45;86.39;99968.59;5104062;28;20031;-69
2022/09/19 04:09:32;;;;;;;1.33;0.60;;;;;;;12.49;87.11;99982.59;5104109;28;20114;-69
2022/09/19 04:11:58;;;;;;;0.70;0.40;;;;;;;12.46;86.34;99967.63;5107041;28;20039;-70
2022/09/19 04:14:24;;;;;;;0.82;0.45;;;;;;;12.53;85.01;99984.81;5105804;27;20118;-70
2022/09/19 04:16:50;;;;;;;0.60;0.55;;;;;;;12.53;85.57;99984.81;5105030;28;20023;-70
2022/09/19 04:19:16;;;;;;;0.47;0.47;;;;;;;12.55;85.45;99992.75;5104436;28;20773;-70
2022/09/19 04:21:45;;;;;;;0.63;0.50;;;;;;;12.56;84.51;99989.03;5105221;28;20036;-70
2022/09/19 04:24:12;;;;;;;1.95;0.60;;;;;;;12.55;85.35;99987.34;5104154;28;20034;-69
2022/09/19 04:26:37;;;;;;;3.30;0.50;;;;;;;12.56;85.51;99989.91;5104394;28;20028;-70
2022/09/19 04:29:05;;;;;;;0.57;0.50;;;;;;;12.52;85.10;99966.16;5105592;28;20746;-70
2022/09/19 04:31:37;;;;;;;1.67;0.50;;;;;;;12.51;84.30;99959.09;5108342;28;20382;-70
2022/09/19 04:34:03;;;;;;;0.88;0.50;;;;;;;12.60;83.83;99968.88;5108676;28;20634;-70
2022/09/19 04:36:31;;;;;;;0.93;0.60;;;;;;;12.59;84.65;99951.06;5106495;28;20107;-70
2022/09/19 04:38:58;;;;;;;0.50;0.40;;;;;;;12.60;84.84;99953.59;5108770;28;20138;-70
2022/09/19 04:41:24;;;;;;;0.40;0.40;;;;;;;12.63;84.29;99950.59;5107745;28;20514;-71
2022/09/19 04:43:50;;;;;;;0.98;0.52;;;;;;;12.65;84.48;99955.81;5108296;28;20043;-70
2022/09/19 04:46:20;;;;;;;0.65;0.47;;;;;;;12.64;84.60;99954.16;5108675;28;20026;-67
2022/09/19 04:48:47;;;;;;;0.65;0.45;;;;;;;12.58;84.52;99944.84;5106561;28;20101;-70
2022/09/19 04:51:12;;;;;;;0.70;0.68;;;;;;;12.62;84.02;99951.63;5106717;28;20050;-69
2022/09/19 04:53:38;;;;;;;1.95;0.50;;;;;;;12.67;83.99;99961.91;5107980;28;20102;-69
2022/09/19 04:56:04;;;;;;;0.90;0.68;;;;;;;12.68;83.48;99958.22;5108324;27;20757;-70
2022/09/19 04:58:29;;;;;;;1.80;0.90;;;;;;;12.69;83.69;99957.19;5107067;27;20031;-70
2022/09/19 05:00:55;;;;;;;1.00;0.68;;;;;;;12.68;82.93;99950.13;5108025;28;20063;-70
2022/09/19 05:03:25;;;;;;;3.13;0.70;;;;;;;12.70;83.37;99950.81;5107937;28;20298;-70
2022/09/19 05:05:51;;;;;;;1.77;0.70;;;;;;;12.63;83.03;99931.78;5107191;28;20460;-68
2022/09/19 05:08:28;;;;;;;1.20;0.60;;;;;;;12.69;83.11;99939.22;5107697;28;20028;-69
2022/09/19 05:10:55;;;;;;;0.60;0.50;;;;;;;12.61;82.87;99925.69;5107641;27;20077;-69
2022/09/19 05:13:23;;;;;;;0.57;0.55;;;;;;;12.72;83.01;99944.28;5107344;27;20027;-68
2022/09/19 05:15:51;;;;;;;1.88;0.70;;;;;;;12.71;83.51;99933.69;5109549;27;20031;-69
2022/09/19 05:18:21;;;;;;;0.63;0.40;;;;;;;12.66;83.31;99927.91;5105849;28;20066;-69
2022/09/19 05:20:47;;;;;;;1.13;0.50;;;;;;;12.72;83.50;99936.22;5107295;28;20030;-69
2022/09/19 05:23:14;;;;;;;1.52;0.88;;;;;;;12.75;82.91;99929.66;5107248;28;20035;-69
2022/09/19 05:25:40;;;;;;;1.70;0.90;;;;;;;12.73;82.58;99921.75;5107045;27;20476;-69
2022/09/19 05:28:07;;;;;;;2.20;1.13;;;;;;;12.80;82.58;99935.44;5107258;28;20027;-68
2022/09/19 05:30:34;;;;;;;2.78;1.05;;;;;;;12.81;83.08;99929.03;5106520;28;20406;-69
2022/09/19 05:33:00;;;;;;;2.22;1.10;;;;;;;12.71;82.67;99910.28;5105114;28;20041;-65
2022/09/19 05:35:26;;;;;;;1.40;0.82;;;;;;;12.83;83.66;99927.88;5105898;28;20027;-66
2022/09/19 05:37:52;;;;;;;1.65;0.80;;;;;;;12.85;83.18;99930.41;5109080;27;20148;-67
2022/09/19 05:40:18;;;;;;;2.13;0.70;;;;;;;12.80;82.30;99927.34;5105959;28;20790;-68
2022/09/19 05:42:46;;;;;;;1.05;0.90;;;;;;;12.85;81.97;99939.34;5105484;28;20034;-68
2022/09/19 05:45:13;;;;;;;0.73;0.57;;;;;;;12.87;81.39;99939.19;5107304;28;20108;-68
2022/09/19 05:47:39;;;;;;;1.17;0.60;;;;;;;12.85;81.93;99935.78;5106867;28;20080;-67
2022/09/19 05:50:09;;;;;;;0.90;0.57;;;;;;;12.90;81.43;99937.00;5107850;27;20031;-68
2022/09/19 05:55:24;;;;;;;1.83;0.70;;;;;;;12.94;80.97;99937.53;5106401;28;20046;-69
2022/09/19 05:57:55;;;;;;;1.63;0.50;;;;;;;12.92;80.91;99935.00;5106405;28;20028;-68
2022/09/19 06:00:22;;;;;;;2.17;0.60;;;;;;;12.94;81.22;99935.69;5106453;28;20666;-69
2022/09/19 06:03:00;;;;;;;0.80;0.60;;;;;;;12.87;79.90;99926.53;5106670;28;20031;-68
2022/09/19 06:05:28;;;;;;;1.67;0.93;;;;;;;12.99;79.79;99943.31;5105835;28;20109;-68
2022/09/19 06:07:58;;;;;;;1.45;0.70;;;;;;;13.02;79.63;99941.16;5107652;27;20015;-69
2022/09/19 06:10:24;;;;;;;1.00;0.60;;;;;;;13.05;79.30;99942.66;5105056;28;20111;-67
2022/09/19 06:12:52;;;;;;;1.02;0.50;;;;;;;13.03;79.59;99934.75;5105950;28;20172;-68
2022/09/19 06:15:18;;;;;;;2.15;0.70;;;;;;;13.06;79.55;99936.31;5106231;27;20124;-68
2022/09/19 06:17:45;;;;;;;2.65;0.88;;;;;;;12.97;80.22;99921.88;5106821;27;20062;-65
2022/09/19 06:20:12;;;;;;;3.50;1.10;;;;;;;13.08;80.88;99932.44;5103247;27;20072;-64
2022/09/19 06:22:39;;;;;;;2.35;0.80;;;;;;;13.09;80.40;99928.72;5100512;28;20181;-65
2022/09/19 06:25:04;;;;;;;3.00;0.63;;;;;;;13.11;80.31;99936.66;5101432;28;20677;-65
2022/09/19 06:27:30;;;;;;;0.77;0.57;;;;;;;13.12;80.36;99951.78;5102412;28;20035;-67
2022/09/19 06:29:55;;;;;;;1.90;1.00;;;;;;;13.15;80.02;99944.25;5104091;28;20036;-68
2022/09/19 06:32:21;;;;;;;1.50;0.57;;;;;;;13.10;80.43;99933.09;5103185;28;20043;-69
2022/09/19 06:34:47;;;;;;;0.70;0.68;;;;;;;12.97;80.59;99918.38;5104099;28;20035;-70
2022/09/19 06:37:12;;;;;;;2.50;1.00;;;;;;;13.13;80.78;99948.13;5104123;28;20072;-67
2022/09/19 06:39:39;;;;;;;3.28;0.65;;;;;;;13.15;80.67;99952.31;5104971;28;20031;-68
2022/09/19 06:42:04;;;;;;;0.98;0.70;;;;;;;13.15;81.51;99948.78;5095145;28;20015;-67
2022/09/19 06:44:30;;;;;;;0.70;0.70;;;;;;;13.19;80.56;99956.38;5105119;28;20033;-67
2022/09/19 06:46:58;;;;;;;1.10;0.80;;;;;;;13.22;81.02;99957.94;5105575;27;20043;-67
2022/09/19 06:49:23;;;;;;;1.13;0.70;;;;;;;13.23;81.36;99967.69;5102177;28;20039;-66
2022/09/19 06:51:49;;;;;;;0.77;0.77;;;;;;;13.24;80.35;99964.84;5103185;28;20023;-66
2022/09/19 06:54:15;;;;;;;1.95;0.98;;;;;;;13.24;80.66;99974.75;5101795;28;20683;-66
2022/09/19 06:56:41;;;;;;;1.15;0.68;;;;;;;13.22;81.24;99974.09;5101994;28;20019;-66
2022/09/19 06:59:07;;;;;;;2.40;0.88;;;;;;;13.22;80.53;99987.56;5101036;28;20026;-66
2022/09/19 07:01:33;;;;;;;3.40;0.90;;;;;;;13.20;80.93;99976.94;5103110;28;20116;-66
2022/09/19 07:03:58;;;;;;;0.90;0.80;;;;;;;13.28;80.58;99989.59;5103204;28;20056;-66
2022/09/19 07:06:24;;;;;;;0.80;0.60;;;;;;;13.22;81.36;99977.59;5103193;28;20115;-65
2022/09/19 07:08:49;;;;;;;1.52;0.80;;;;;;;13.26;82.29;99997.00;5104606;27;20100;-66
2022/09/19 07:11:15;;;;;;;4.10;0.95;;;;;;;13.27;81.70;99998.69;5102711;27;20113;-65
2022/09/19 07:13:40;;;;;;;1.05;0.98;;;;;;;13.20;81.72;99994.94;5103101;28;20054;-66
2022/09/19 07:16:06;;;;;;;2.85;1.17;;;;;;;13.27;81.99;100004.91;5105158;28;20038;-66
2022/09/19 07:18:35;;;;;;;3.42;1.15;;;;;;;13.34;81.33;100014.03;5102840;28;20092;-67
2022/09/19 07:21:01;;;;;;;1.27;1.10;;;;;;;13.39;81.33;100010.88;5101853;28;20038;-66
2022/09/19 07:23:26;;;;;;;3.92;0.98;;;;;;;13.36;81.10;100021.97;5102754;28;20394;-64
2022/09/19 07:25:56;;;;;;;2.08;0.90;;;;;;;13.33;81.96;100011.50;5104062;27;20035;-65
2022/09/19 07:28:22;;;;;;;1.80;0.80;;;;;;;13.39;81.51;100008.19;5102664;28;20559;-64
2022/09/19 07:30:48;;;;;;;1.02;0.80;;;;;;;13.32;81.84;100004.44;5103403;28;20107;-65
2022/09/19 07:33:16;;;;;;;1.10;0.82;;;;;;;13.28;82.41;100003.06;5101299;28;20039;-66
2022/09/19 07:35:42;;;;;;;1.77;0.70;;;;;;;13.40;81.69;100023.34;5103536;28;20059;-65
2022/09/19 07:38:14;;;;;;;1.15;0.70;;;;;;;13.52;81.24;100022.06;5103143;28;20083;-66
2022/09/19 07:40:40;;;;;;;1.80;0.77;;;;;;;13.52;80.19;100024.75;5102641;28;20063;-65
2022/09/19 07:43:07;;;;;;;1.83;1.00;;;;;;;13.49;80.99;100046.63;5102944;28;20035;-65
2022/09/19 07:45:35;;;;;;;1.77;0.77;;;;;;;13.34;82.38;100043.69;5098597;28;20034;-65
2022/09/19 07:48:01;;;;;;;0.60;0.60;;;;;;;13.43;82.86;100071.50;5099965;28;20039;-65
2022/09/19 07:50:27;;;;;;;2.50;0.88;;;;;;;13.45;83.08;100085.69;5100715;28;20024;-65
2022/09/19 07:53:03;;;;;;;3.15;0.80;;;;;;;13.44;83.28;100083.97;5104159;28;20517;-65
2022/09/19 07:55:28;;;;;;;1.48;0.90;;;;;;;13.44;84.01;100089.34;5100386;28;20439;-66
2022/09/19 07:57:57;;;;;;;1.92;0.65;;;;;;;13.44;84.17;100087.50;5102032;28;20056;-66
2022/09/19 08:00:24;;;;;;;1.17;0.60;;;;;;;13.47;84.69;100100.66;5102056;28;20485;-65
2022/09/19 08:03:01;;;;;;;1.27;1.00;;;;;;;13.51;85.19;100090.41;5101909;28;20069;-65
2022/09/19 08:05:32;;;;;;;2.70;0.88;;;;;;;13.62;83.70;100096.41;5105418;28;20027;-66
2022/09/19 08:07:58;;;;;;;0.60;0.60;;;;;;;13.73;82.58;100100.66;5107401;27;20114;-66
2022/09/19 08:10:23;;;;;;;2.55;1.00;;;;;;;13.65;84.22;100100.63;5106363;28;20126;-64
2022/09/19 08:12:49;;;;;;;2.53;0.70;;;;;;;13.54;83.96;100100.88;5106713;28;20049;-64
2022/09/19 08:15:17;;;;;;;2.78;0.90;;;;;;;13.59;84.53;100120.09;5106987;28;20042;-64
2022/09/19 08:18:01;;;;;;;0.98;0.68;;;;;;;13.63;85.64;100137.66;5105889;28;20023;-64
2022/09/19 08:20:30;;;;;;;4.95;0.90;;;;;;;13.63;85.24;100138.50;5107823;27;20107;-65
2022/09/19 08:23:10;;;;;;;1.90;0.93;;;;;;;13.68;85.96;100146.13;5103783;28;20066;-65
2022/09/19 08:25:38;;;;;;;1.23;1.05;;;;;;;13.67;87.33;100152.50;5103806;28;20035;-65
2022/09/19 08:28:03;;;;;;;1.70;1.17;;;;;;;13.74;88.40;100159.78;5103238;28;20024;-67
2022/09/19 08:30:30;;;;;;;4.80;1.58;;;;;;;13.43;89.44;100168.50;5103650;28;20649;-66
2022/09/19 08:32:59;;;;;;;3.45;1.70;;;;;;;13.37;92.37;100174.50;5107118;28;20483;-66
2022/09/19 08:35:25;;;;;;;5.93;1.73;;;;;;;13.11;94.40;100176.28;5103216;27;20028;-66
2022/09/19 08:37:59;;;;;;;4.97;1.67;;;;;;;13.08;95.49;100200.81;5104042;28;20081;-66
2022/09/19 08:40:26;;;;;;;1.90;1.25;;;;;;;12.78;96.97;100198.47;5106945;27;20028;-66
2022/09/19 08:43:23;;;;;;;2.40;1.08;;;;;;;12.70;98.79;100204.59;5104899;27;20539;-66
2022/09/19 08:45:55;;;;;;;2.45;1.35;;;;;;;12.58;98.44;100202.28;5106021;28;20431;-66
2022/09/19 08:48:29;;;;;;;5.13;1.20;;;;;;;12.49;97.81;100198.66;5106738;28;20031;-67
2022/09/19 08:51:03;;;;;;;1.70;1.10;;;;;;;12.40;98.90;100193.28;5108240;28;20038;-66
2022/09/19 08:53:36;;;;;;;1.83;1.10;;;;;;;12.39;100.00;100199.69;5108959;28;20035;-64
2022/09/19 08:56:04;;;;;;;2.80;1.30;;;;;;;12.27;100.00;100192.78;5107595;27;20096;-66
2022/09/19 08:58:34;;;;;;;1.75;1.10;;;;;;;12.28;100.00;100205.28;5107418;28;20024;-67
2022/09/19 09:01:04;;;;;;;2.88;1.20;;;;;;;12.23;100.00;100196.78;5107539;28;20036;-66
2022/09/19 09:03:47;;;;;;;2.17;1.17;;;;;;;12.20;100.00;100194.38;5106303;28;20027;-66
2022/09/19 09:06:19;;;;;;;1.95;1.02;;;;;;;12.18;100.00;100188.28;5104147;28;20145;-67
2022/09/19 09:09:08;;;;;;;1.95;0.90;;;;;;;12.17;100.00;100186.63;5105622;28;20031;-66
2022/09/19 09:11:51;;;;;;;2.10;0.70;;;;;;;12.23;100.00;100175.28;5104296;28;20641;-70
2022/09/19 09:14:25;;;;;;;2.23;1.20;;;;;;;12.28;100.00;100163.06;5104095;28;20027;-69
2022/09/19 09:17:03;;;;;;;1.48;1.13;;;;;;;12.33;100.00;100173.38;5105387;28;20023;-70
2022/09/19 09:19:47;;;;;;;2.13;0.90;;;;;;;12.36;100.00;100176.63;5106612;28;20054;-70
2022/09/19 09:22:21;;;;;;;2.88;1.02;;;;;;;12.31;100.00;100160.09;5104536;28;20031;-71
2022/09/19 09:25:08;;;;;;;2.28;1.58;;;;;;;12.38;100.00;100181.88;5107931;28;20047;-70
2022/09/19 09:27:45;;;;;;;0.93;0.70;;;;;;;12.35;100.00;100171.41;5104020;28;20391;-70
2022/09/19 09:30:17;;;;;;;1.77;1.08;;;;;;;12.48;100.00;100166.50;5107400;28;20030;-69
2022/09/19 09:32:56;;;;;;;2.35;0.95;;;;;;;12.44;100.00;100167.78;5110064;28;20032;-69
2022/09/19 09:35:35;;;;;;;2.67;1.17;;;;;;;12.52;100.00;100178.66;5105114;28;20035;-70
2022/09/19 09:38:19;;;;;;;2.00;1.05;;;;;;;12.52;100.00;100176.81;5109866;28;20438;-70
2022/09/19 09:43:45;;;;;;;2.10;1.25;;;;;;;12.59;100.00;100177.91;5105607;28;20054;-70
2022/09/19 09:46:15;;;;;;;4.85;1.55;;;;;;;12.56;100.00;100162.06;5110131;28;20446;-70
2022/09/19 09:48:41;;;;;;;2.60;1.80;;;;;;;12.64;100.00;100164.00;5103245;28;20036;-70
2022/09/19 09:51:19;;;;;;;5.30;1.70;;;;;;;12.66;100.00;100167.38;5112062;28;20035;-70
2022/09/19 09:53:50;;;;;;;2.15;1.77;;;;;;;12.69;100.00;100173.31;5108072;28;20047;-69
2022/09/19 09:56:25;;;;;;;1.92;1.50;;;;;;;12.71;100.00;100173.16;5107508;28;20028;-69
2022/09/19 10:05:55;;;;;;;3.83;1.63;;;;;;;12.82;100.00;100179.19;5088520;28;20046;-69
2022/09/19 10:08:38;;;;;;;3.30;1.42;;;;;;;12.87;100.00;100181.41;5107491;28;20032;-69
2022/09/19 10:11:27;;;;;;;1.42;1.20;;;;;;;12.90;100.00;100191.88;5065015;28;1154727;-68
2022/09/19 10:14:04;;;;;;;2.38;1.38;;;;;;;12.90;100.00;100192.69;5105752;28;20483;-69
2022/09/19 10:16:32;;;;;;;2.53;1.65;;;;;;;12.93;100.00;100191.56;5105892;28;20025;-68
2022/09/19 10:19:11;;;;;;;2.33;1.50;;;;;;;12.95;100.00;100201.19;5107504;28;20713;-67
2022/09/19 10:21:38;;;;;;;2.47;1.50;;;;;;;12.99;100.00;100196.34;5105171;28;20039;-69
2022/09/19 10:24:42;;;;;;;1.85;1.48;;;;;;;13.05;100.00;100184.97;5105823;28;20047;-68
2022/09/19 10:27:25;;;;;;;2.90;1.40;;;;;;;13.15;100.00;100181.22;5105404;28;20028;-68
2022/09/19 10:30:19;;;;;;;8.30;1.60;;;;;;;13.34;100.00;100185.59;5106951;28;20024;-69
2022/09/19 10:32:46;;;;;;;4.85;1.75;;;;;;;13.46;100.00;100185.22;5102164;28;20035;-68
2022/09/19 10:35:33;;;;;;;4.35;1.48;;;;;;;13.61;100.00;100170.13;5107268;28;20041;-69
2022/09/19 10:38:15;;;;;;;2.25;1.30;;;;;;;13.80;100.00;100170.97;5107084;28;20080;-68
2022/09/19 10:40:56;;;;;;;2.22;1.10;;;;;;;14.02;99.22;100167.72;5106106;28;20023;-68
2022/09/19 10:43:26;;;;;;;4.53;1.52;;;;;;;14.05;97.93;100165.53;5105964;28;20035;-68
2022/09/19 10:45:53;;;;;;;3.10;1.08;;;;;;;14.27;95.83;100170.41;5105546;28;20039;-68
2022/09/19 10:48:29;;;;;;;2.05;1.30;;;;;;;14.37;94.58;100172.97;5107094;27;20087;-68
2022/09/19 10:50:55;;;;;;;4.75;1.20;;;;;;;14.52;91.99;100171.34;5107584;27;20093;-67
2022/09/19 10:53:33;;;;;;;2.15;0.90;;;;;;;14.67;90.23;100170.53;5105380;28;20026;-68
2022/09/19 10:56:11;;;;;;;1.80;0.77;;;;;;;14.77;90.00;100168.53;5106091;27;20505;-68
2022/09/19 10:58:42;;;;;;;2.38;0.98;;;;;;;14.86;90.37;100166.72;5102800;28;20023;-68
2022/09/19 11:01:21;;;;;;;1.63;0.60;;;;;;;14.96;90.14;100162.84;5104996;28;20027;-67
2022/09/19 11:04:08;;;;;;;1.60;0.80;;;;;;;15.04;88.71;100162.03;5104942;28;20031;-69
2022/09/19 11:06:33;;;;;;;1.55;0.80;;;;;;;15.14;83.16;100152.75;5103347;28;20032;-68
2022/09/19 11:09:05;;;;;;;0.90;0.52;;;;;;;15.15;84.76;100146.34;5105049;28;20039;-68
2022/09/19 11:11:47;;;;;;;1.35;0.85;;;;;;;15.20;85.76;100148.53;5104238;28;20044;-66
2022/09/19 11:14:18;;;;;;;2.47;0.70;;;;;;;15.38;81.95;100158.19;5103680;28;20039;-68
2022/09/19 11:17:01;;;;;;;2.65;0.80;;;;;;;15.36;81.60;100143.13;5105059;28;20023;-67
2022/09/19 11:19:35;;;;;;;0.93;0.60;;;;;;;15.51;77.04;100150.41;5103872;28;20038;-68
2022/09/19 11:22:26;;;;;;;3.83;1.20;;;;;;;15.43;75.62;100150.44;5104087;28;20540;-67
2022/09/19 11:25:09;;;;;;;1.63;0.80;;;;;;;15.49;75.56;100138.94;5104405;28;21533;-67
2022/09/19 11:28:12;;;;;;;2.08;0.85;;;;;;;15.46;76.08;100150.09;5103718;28;20034;-68
2022/09/19 11:31:05;;;;;;;2.25;0.90;;;;;;;15.23;78.65;100143.66;5102705;28;20020;-67
2022/09/19 11:33:43;;;;;;;1.25;0.73;;;;;;;15.29;77.62;100152.94;5102500;28;20035;-66
2022/09/19 11:36:55;;;;;;;2.50;0.85;;;;;;;15.23;79.12;100154.47;5101872;28;20087;-65
2022/09/19 11:39:39;;;;;;;3.15;1.02;;;;;;;15.10;82.38;100154.13;5090814;28;20121;-65
2022/09/19 11:42:47;;;;;;;2.40;0.70;;;;;;;15.18;85.17;100155.94;5105773;27;20031;-64
2022/09/19 11:45:19;;;;;;;2.92;0.68;;;;;;;15.13;83.22;100151.03;5073890;28;20046;-64
2022/09/19 11:48:06;;;;;;;1.33;0.80;;;;;;;15.07;84.21;100149.03;5104038;28;20036;-64
2022/09/19 11:50:39;;;;;;;1.50;1.00;;;;;;;15.05;85.24;100158.31;5103983;28;20475;-64
2022/09/19 11:53:04;;;;;;;1.50;1.00;;;;;;;15.06;83.95;100149.22;5104640;28;20474;-65
2022/09/19 11:55:55;;;;;;;1.23;0.70;;;;;;;15.04;84.93;100154.78;5104220;28;20020;-65
2022/09/19 11:58:33;;;;;;;1.17;0.90;;;;;;;15.20;83.87;100145.84;5103918;28;20426;-64
2022/09/19 12:01:15;;;;;;;1.70;0.90;;;;;;;15.20;83.52;100149.38;5104060;28;20047;-65